Latest Coastal Weather Observations for Learmonth

IDW60701

Issued at 11:22 am WST Tuesday 27 January 2015 (issued every 10 minutes, with the page automatically refreshed every 10 minutes)

About coastal observations | Map of coastal stations | Coastal observations for WA | Marine services | Other Formats
Station Details ID: 005007 Name: LEARMONTH AIRPORT Lat: -22.24 Lon: 114.10 Height: 5.0 m
Data from the previous 72 hours. | See also: Recent months at Learmonth
Date/Time
WST
Temp

°C
Wind Pressure Rain
since 9am
mm
Weather Cloud Vis
km
Sea
Height
m
Swell
Dir
 
Speed
knots
Gust
knots
hPa Trend Height
m
Period
s
Dir
27/11:00am 29.7 WSW 11 15 1007.5 - 0.0 - Partly cloudy 10 - - - -
27/10:30am 29.6 WSW 11 15 1007.6 - 0.0 - Partly cloudy 10 - - - -
27/10:00am 28.7 WSW 8 13 1007.7 - 0.0 - Partly cloudy 10 - - - -
27/09:30am 28.0 WSW 8 13 1007.8 - 0.0 - Partly cloudy 10 - - - -
27/09:00am 27.4 WSW 7 11 1007.5 R 0.0 Fine Partly cloudy 20 - - - -
27/08:30am 26.7 WSW 9 13 1007.7 - 0.0 - Partly cloudy 10 - - - -
27/08:00am 25.9 WSW 8 11 1007.4 - 0.0 - Mostly cloudy 10 - - - -
27/07:30am 25.3 W 9 11 1007.3 - 0.0 - Mostly cloudy 10 - - - -
27/07:00am 24.8 SW 6 8 1007.2 - 0.0 - Mostly cloudy 10 - - - -
27/06:30am 24.3 SW 10 13 1006.9 - 0.0 - Mostly cloudy 10 - - - -
27/06:00am 24.4 WSW 8 11 1006.5 R 0.0 Fine Mostly cloudy 15 - - - -
27/05:30am 24.4 SW 9 12 1006.4 - 0.0 - Cloudy 10 - - - -
27/05:00am 23.9 SW 10 14 1006.4 - 0.0 - Partly cloudy 10 - - - -
27/04:30am 23.9 WSW 7 10 1006.1 - 0.0 - Partly cloudy 10 - - - -
27/04:00am 23.4 WSW 10 15 1006.0 - 0.0 - Partly cloudy 10 - - - -
27/03:30am 23.2 WSW 8 10 1005.8 - 0.0 - Partly cloudy 10 - - - -
27/03:00am 23.1 SW 7 9 1005.6 - 0.0 - - 10 - - - -
27/02:30am 23.5 WSW 10 13 1005.8 - 0.0 - - 10 - - - -
27/02:00am 23.8 WSW 13 18 1005.8 - 0.0 - - 10 - - - -
27/01:30am 23.9 SW 16 20 1005.8 - 0.0 - - 10 - - - -
27/01:00am 24.1 SW 16 20 1005.8 - 0.0 - - 10 - - - -
27/12:30am 24.2 SW 15 22 1006.2 - 0.0 - - 10 - - - -
27/12:00am 24.3 WSW 17 22 1006.3 - 0.0 - - 10 - - - -
 
Date/Time
WST
Temp

°C
Wind Pressure Rain
since 9am
mm
Weather Cloud Vis
km
Sea
Height
m
Swell
Dir
 
Speed
knots
Gust
knots
hPa Trend Height
m
Period
s
Dir
26/11:30pm 24.4 SW 15 18 1006.7 - 0.0 - - 10 - - - -
26/11:00pm 24.4 SW 15 18 1006.7 - 0.0 - - 10 - - - -
26/10:30pm 24.6 SW 17 22 1006.7 - 0.0 - - 10 - - - -
26/10:00pm 24.7 SW 15 22 1006.7 - 0.0 - - 10 - - - -
26/09:30pm 24.7 WSW 13 19 1006.7 - 0.0 - - 10 - - - -
26/09:00pm 24.8 SW 15 19 1006.4 - 0.0 - - 10 - - - -
26/08:30pm 24.9 WSW 17 23 1006.3 - 0.0 - - 10 - - - -
26/08:00pm 25.2 WSW 14 18 1006.2 - 0.0 - - 10 - - - -
26/07:30pm 25.6 WSW 14 18 1006.1 - 0.0 - - 10 - - - -
26/07:00pm 26.3 WSW 15 20 1005.7 - 0.0 - - 10 - - - -
26/06:30pm 28.0 WSW 15 21 1005.5 - 0.0 - - 10 - - - -
26/06:00pm 28.9 WSW 17 21 1005.1 - 0.0 - - 10 - - - -
26/05:30pm 29.9 WSW 15 20 1005.0 - 0.0 - - 10 - - - -
26/05:00pm 31.3 WSW 15 21 1004.8 - 0.0 - - 10 - - - -
26/04:30pm 32.7 WSW 15 20 1004.6 - 0.0 - - 10 - - - -
26/04:00pm 32.9 W 15 21 1004.6 - 0.0 - - 10 - - - -
26/03:30pm 33.5 W 14 19 1004.9 - 0.0 - - 10 - - - -
26/03:00pm 34.2 W 14 17 1004.7 R 0.0 Haze Clear 20 - - - -
26/02:30pm 34.8 W 12 17 1004.7 - 0.0 - - 10 - - - -
26/02:00pm 32.9 N 11 14 1004.8 - 0.0 - - 10 - - - -
26/01:30pm 32.6 NNE 14 18 1005.3 - 0.0 - - 10 - - - -
26/01:00pm 32.5 ENE 10 14 1005.5 - 0.0 - - 10 - - - -
26/12:30pm 31.7 ENE 11 15 1005.7 - 0.0 - - 10 - - - -
26/12:00pm 31.7 E 12 16 1005.8 R 0.0 Haze Clear 20 - - - -
26/11:30am 33.7 W 5 9 1006.0 - 0.0 - - 10 - - - -
26/11:00am 33.1 SW 8 13 1006.3 - 0.0 - - 10 - - - -
26/10:30am 32.2 SW 12 17 1006.2 - 0.0 - - 10 - - - -
26/10:00am 31.6 SW 12 17 1006.4 - 0.0 - - 10 - - - -
26/09:30am 30.0 SW 13 19 1006.5 - 0.0 - - 10 - - - -
26/09:00am 28.7 SW 13 18 1006.7 F 0.0 Fine Clear 20 - - - -
26/08:30am 27.6 SW 15 19 1006.4 - 0.0 - - 10 - - - -
26/08:00am 26.2 SW 17 21 1006.5 - 0.0 - - 10 - - - -
26/07:30am 25.2 SW 16 23 1006.5 - 0.0 - - 10 - - - -
26/07:00am 24.2 WSW 11 15 1006.7 - 0.0 - - 10 - - - -
26/06:30am 22.9 WSW 9 11 1006.5 - 0.0 - - 10 - - - -
26/06:00am 22.5 WSW 8 11 1006.2 R 0.0 Fine Partly cloudy 15 - - - -
26/05:30am 22.3 SW 6 8 1006.1 - 0.0 - - 10 - - - -
26/05:00am 22.5 SW 7 9 1005.9 - 0.0 - - 10 - - - -
26/04:30am 22.7 SSW 6 8 1005.8 - 0.0 - - 10 - - - -
26/04:00am 23.3 SW 9 11 1005.7 - 0.0 - - 10 - - - -
26/03:30am 23.6 SSW 10 13 1005.6 - 0.0 - - 10 - - - -
26/03:00am 23.7 SSW 13 17 1005.4 - 0.0 - - 10 - - - -
26/02:30am 23.9 SSW 11 14 1005.8 - 0.0 - - 10 - - - -
26/02:00am 24.0 SW 10 12 1005.8 - 0.0 - - 10 - - - -
26/01:30am 24.4 SW 8 11 1005.8 - 0.0 - - 10 - - - -
26/01:00am 24.9 SW 12 17 1005.5 - 0.0 - - 10 - - - -
26/12:30am 25.4 SW 14 18 1005.4 - 0.0 - - 10 - - - -
26/12:00am 25.6 SW 14 18 1005.3 - 0.0 - - 10 - - - -
 
Date/Time
WST
Temp

°C
Wind Pressure Rain
since 9am
mm
Weather Cloud Vis
km
Sea
Height
m
Swell
Dir
 
Speed
knots
Gust
knots
hPa Trend Height
m
Period
s
Dir
25/11:30pm 26.2 SW 14 19 1005.5 - 0.0 - - 10 - - - -
25/11:00pm 25.9 SW 15 19 1005.7 - 0.0 - - 10 - - - -
25/10:30pm 26.1 SW 14 19 1006.0 - 0.0 - - 10 - - - -
25/10:00pm 26.1 SW 16 21 1006.1 - 0.0 - - 10 - - - -
25/09:30pm 26.4 SW 15 21 1006.1 - 0.0 - - 10 - - - -
25/09:00pm 26.7 SW 18 24 1006.0 - 0.0 - - 10 - - - -
25/08:30pm 27.6 WSW 17 22 1005.9 - 0.0 - - 10 - - - -
25/08:00pm 28.9 WSW 15 22 1005.8 - 0.0 - - 10 - - - -
25/07:30pm 29.9 SW 15 22 1005.8 - 0.0 - - 10 - - - -
25/07:00pm 31.1 SW 19 23 1005.3 - 0.0 - - 10 - - - -
25/06:30pm 32.7 WSW 17 23 1004.9 - 0.0 - - 10 - - - -
25/06:00pm 33.8 WSW 18 25 1004.4 - 0.0 - - 10 - - - -
25/05:30pm 34.9 WSW 19 24 1004.1 - 0.0 - - 10 - - - -
25/05:00pm 36.3 WSW 17 22 1003.7 - 0.0 - - 10 - - - -
25/04:30pm 36.7 WSW 19 25 1003.5 - 0.0 - - 10 - - - -
25/04:00pm 37.2 WSW 19 26 1003.7 - 0.0 - - 10 - - - -
25/03:30pm 37.7 W 19 25 1004.2 - 0.0 - - 10 - - - -
25/03:00pm 38.0 WSW 17 22 1004.5 R 0.0 Fine Clear 20 - - - -
25/02:30pm 38.8 W 18 24 1004.7 - 0.0 - - 10 - - - -
25/02:00pm 38.8 WSW 17 22 1004.8 - 0.0 - - 10 - - - -
25/01:30pm 39.9 WSW 16 21 1004.7 - 0.0 - - 10 - - - -
25/01:00pm 39.1 SW 15 17 1004.8 - 0.0 - - 10 - - - -
25/12:30pm 39.6 SW 14 20 1005.1 - 0.0 - - 10 - - - -
25/12:00pm 38.5 WSW 12 17 1005.3 S 0.0 Fine Clear 20 - - - -
25/11:30am 38.6 SW 12 17 1005.8 - 0.0 - - 10 - - - -
25/11:00am 37.4 SSW 10 18 1006.1 - 0.0 - - 10 - - - -
25/10:30am 36.7 SSW 10 13 1006.4 - 0.0 - - 10 - - - -
25/10:00am 35.2 SSW 11 17 1006.4 - 0.0 - - 10 - - - -
25/09:30am 33.9 SSW 10 14 1006.5 - 0.0 - - 10 - - - -
25/09:00am 32.4 SSW 12 16 1006.4 F 0.0 Haze Clear 20 - - - -
25/08:30am 30.5 SW 16 19 1006.4 - 0.0 - - 10 - - - -
25/08:00am 28.9 SSW 16 21 1006.6 - 0.0 - - 10 - - - -
25/07:30am 27.6 SSW 16 19 1006.5 - 0.0 - - 10 - - - -
25/07:00am 26.5 SSW 12 17 1006.5 - 0.0 - - 10 - - - -
25/06:30am 25.2 SW 14 18 1005.9 - 0.0 - - 10 - - - -
25/06:00am 24.7 SW 14 18 1005.7 R 0.0 Haze Clear 15 - - - -
25/05:30am 24.3 SSW 12 15 1005.7 - 0.0 - - 10 - - - -
25/05:00am 24.6 SSW 14 18 1005.0 - 0.0 - - 10 - - - -
25/04:30am 24.9 SSW 16 21 1004.7 - 0.0 - - 10 - - - -
25/04:00am 25.0 SSW 15 20 1004.7 - 0.0 - - 10 - - - -
25/03:30am 25.3 SSW 15 19 1004.9 - 0.0 - - 10 - - - -
25/03:00am 25.3 SSW 14 19 1004.9 - 0.0 - - 10 - - - -
25/02:30am 25.6 SSW 14 18 1005.1 - 0.0 - - 10 - - - -
25/02:00am 25.7 SW 13 16 1005.0 - 0.0 - - 10 - - - -
25/01:30am 26.1 SSW 15 20 1005.1 - 0.0 - - 10 - - - -
25/01:00am 26.2 SSW 15 21 1005.3 - 0.0 - - 10 - - - -
25/12:30am 26.7 SW 15 20 1005.5 - 0.0 - - 10 - - - -
25/12:00am 26.8 SW 13 17 1005.9 - 0.0 - - 10 - - - -
 
Date/Time
WST
Temp

°C
Wind Pressure Rain
since 9am
mm
Weather Cloud Vis
km
Sea
Height
m
Swell
Dir
 
Speed
knots
Gust
knots
hPa Trend Height
m
Period
s
Dir
24/11:30pm 26.9 SW 13 17 1006.1 - 0.0 - - 10 - - - -
24/11:00pm 27.1 SW 12 15 1006.4 - 0.0 - - 10 - - - -
24/10:30pm 27.7 SW 12 15 1006.3 - 0.0 - - 10 - - - -
24/10:00pm 28.7 SW 12 16 1006.4 - 0.0 - - 10 - - - -
24/09:30pm 28.9 SW 14 19 1006.2 - 0.0 - - 10 - - - -
24/09:00pm 28.9 SW 15 20 1006.1 - 0.0 - - 10 - - - -
24/08:30pm 29.2 SW 16 21 1006.0 - 0.0 - - 10 - - - -
24/08:00pm 29.6 SW 16 21 1005.8 - 0.0 - - 10 - - - -
24/07:30pm 31.2 SW 14 21 1005.6 - 0.0 - - 10 - - - -
24/07:04pm 32.5 SW 15 25 1005.3 - 0.0 - - 10 - - - -
24/07:00pm 32.7 SW 16 22 1005.3 - 0.0 - - 10 - - - -
24/06:30pm 34.4 SW 16 22 1004.9 - 0.0 - - 10 - - - -
24/06:00pm 35.6 WSW 18 22 1004.7 - 0.0 - - 10 - - - -
24/05:30pm 36.7 SW 19 21 1004.5 - 0.0 - - 10 - - - -
24/05:00pm 37.5 WSW 17 23 1004.3 - 0.0 - - 10 - - - -
24/04:30pm 38.5 WSW 16 21 1004.4 - 0.0 - - 10 - - - -
24/04:00pm 39.1 WSW 16 20 1004.5 - 0.0 - - 10 - - - -
24/03:30pm 40.1 WSW 14 21 1004.8 - 0.0 - - 10 - - - -
24/03:00pm 40.5 WSW 15 20 1004.8 - 0.0 - - 10 - - - -
24/02:30pm 41.3 W 15 20 1005.1 - 0.0 - - 10 - - - -
24/02:00pm 41.0 WSW 14 20 1005.1 - 0.0 - - 10 - - - -
24/01:30pm 41.0 WSW 13 19 1005.2 - 0.0 - - 10 - - - -
24/01:00pm 40.8 WSW 12 17 1005.5 - 0.0 - - 10 - - - -
24/12:30pm 41.1 WSW 10 16 1005.6 - 0.0 - - 10 - - - -
24/12:00pm 40.2 WSW 11 14 1006.0 - 0.0 - - 10 - - - -
24/11:30am 39.4 WSW 11 17 1006.5 - 0.0 - - 10 - - - -

Other Formats:

Comma delimited format used in spreadsheet applications
http://www.bom.gov.au/fwo/IDW60701/IDW60701.94302.axf

JavaScript Object Notation format (JSON) in row-major order
http://www.bom.gov.au/fwo/IDW60701/IDW60701.94302.json